Time;durP1;ratioP1;P1;durP2;ratioP2;P2;SDS_P1;SDS_P2;PMS_P1;PMS_P2;Temp;Humidity;BMP_temperature;BMP_pressure;BME280_temperature;BME280_humidity;BME280_pressure;Samples;Min_cycle;Max_cycle;Signal;HPM_P1;HPM_P2
2022/04/13 00:01:29;;;;;;;13.60;3.97;;;;;;;14.24;94.65;100797.22;4970596;28;20045;-81
2022/04/13 00:03:55;;;;;;;14.10;4.78;;;;;;;14.29;93.29;100788.53;4995822;28;20108;-81
2022/04/13 00:06:20;;;;;;;9.60;3.40;;;;;;;14.25;93.23;100798.09;4977075;28;20073;-81
2022/04/13 00:08:46;;;;;;;9.70;3.67;;;;;;;14.23;93.07;100792.75;4980130;28;20039;-81
2022/04/13 00:11:13;;;;;;;11.05;3.53;;;;;;;14.28;92.85;100792.28;4975767;28;20374;-81
2022/04/13 00:13:39;;;;;;;13.52;3.72;;;;;;;14.23;93.54;100792.75;4974949;28;20055;-80
2022/04/13 00:16:05;;;;;;;12.48;4.03;;;;;;;14.16;92.45;100794.34;4974870;28;20035;-80
2022/04/13 00:18:33;;;;;;;9.60;3.80;;;;;;;14.14;93.29;100793.63;4981758;28;20038;-80
2022/04/13 00:20:58;;;;;;;15.20;4.63;;;;;;;14.09;93.40;100799.56;4977625;28;20521;-81
2022/04/13 00:23:24;;;;;;;13.52;3.95;;;;;;;14.09;93.33;100794.06;4993231;28;20026;-81
2022/04/13 00:25:49;;;;;;;9.45;3.67;;;;;;;14.23;90.90;100802.88;4972399;28;20050;-81
2022/04/13 00:28:15;;;;;;;7.03;3.35;;;;;;;14.06;92.11;100797.09;4963341;28;20038;-81
2022/04/13 00:30:42;;;;;;;10.70;3.45;;;;;;;14.10;92.42;100800.44;4954738;28;20031;-81
2022/04/13 00:33:08;;;;;;;9.77;3.28;;;;;;;14.16;92.51;100802.59;4957167;28;20039;-81
2022/04/13 00:35:34;;;;;;;14.10;3.50;;;;;;;14.02;93.85;100801.19;4976247;28;20363;-81
2022/04/13 00:37:59;;;;;;;20.05;4.28;;;;;;;13.98;94.28;100805.22;4976684;28;20068;-81
2022/04/13 00:40:25;;;;;;;16.60;5.28;;;;;;;13.96;93.18;100808.13;4996269;28;20037;-81
2022/04/13 00:42:50;;;;;;;11.07;4.47;;;;;;;14.02;92.68;100801.19;4980030;28;20029;-80
2022/04/13 00:45:16;;;;;;;11.18;3.80;;;;;;;14.07;91.90;100801.59;4979907;28;20490;-81
2022/04/13 00:47:41;;;;;;;20.10;3.67;;;;;;;14.03;92.98;100807.53;4958216;28;20562;-81
2022/04/13 00:50:09;;;;;;;8.82;3.65;;;;;;;13.69;97.34;100824.47;4982354;28;20031;-81
2022/04/13 00:52:37;;;;;;;12.70;4.28;;;;;;;13.67;96.16;100824.59;4977158;28;20038;-81
2022/04/13 00:55:07;;;;;;;16.95;4.35;;;;;;;13.54;96.68;100827.66;4980631;28;20034;-81
2022/04/13 00:57:35;;;;;;;14.38;5.30;;;;;;;13.56;97.06;100833.88;4971423;28;20026;-81
2022/04/13 01:00:03;;;;;;;13.68;3.92;;;;;;;13.56;96.76;100833.88;4988151;28;20072;-81
2022/04/13 01:02:30;;;;;;;13.05;4.13;;;;;;;13.62;95.49;100839.81;4975221;28;20510;-81
2022/04/13 01:05:01;;;;;;;14.75;3.92;;;;;;;13.63;95.65;100838.81;4974247;28;20109;-81
2022/04/13 01:07:26;;;;;;;8.57;3.67;;;;;;;13.48;97.50;100830.94;4974317;28;20066;-81
2022/04/13 01:09:53;;;;;;;12.25;3.75;;;;;;;13.48;97.81;100839.19;4974773;28;20117;-81
2022/04/13 01:12:19;;;;;;;9.48;3.95;;;;;;;13.41;96.96;100827.91;4989010;28;20394;-81
2022/04/13 01:14:44;;;;;;;10.93;4.45;;;;;;;13.38;98.63;100839.19;4993102;28;20030;-80
2022/04/13 01:17:10;;;;;;;17.40;4.60;;;;;;;13.27;99.23;100839.25;4976600;28;20109;-80
2022/04/13 01:19:36;;;;;;;14.65;4.32;;;;;;;13.24;99.24;100848.63;4964246;28;20360;-81
2022/04/13 01:22:18;;;;;;;14.25;5.22;;;;;;;13.23;99.68;100854.28;4974690;28;20077;-81
2022/04/13 01:24:44;;;;;;;12.63;4.05;;;;;;;13.23;99.36;100854.28;4994365;28;20034;-81
2022/04/13 01:27:09;;;;;;;12.55;3.60;;;;;;;13.13;99.30;100843.22;4997548;28;20026;-81
2022/04/13 01:29:35;;;;;;;10.02;3.83;;;;;;;13.17;99.72;100852.97;4973898;28;20442;-81
2022/04/13 01:32:00;;;;;;;13.85;3.60;;;;;;;13.23;97.79;100865.28;4962684;28;20747;-81
2022/04/13 01:34:26;;;;;;;13.38;3.78;;;;;;;13.23;98.36;100860.66;4956210;28;20026;-80
2022/04/13 01:36:51;;;;;;;14.70;3.72;;;;;;;13.26;98.19;100867.75;4985900;28;20157;-81
2022/04/13 01:39:17;;;;;;;16.65;3.33;;;;;;;13.28;97.60;100871.25;4992195;28;20038;-81
2022/04/13 01:41:42;;;;;;;12.18;3.80;;;;;;;13.12;100.00;100868.09;4989973;28;20102;-81
2022/04/13 01:44:08;;;;;;;10.40;3.15;;;;;;;13.19;99.80;100872.94;4977038;28;20054;-80
2022/04/13 01:46:33;;;;;;;13.88;3.58;;;;;;;13.27;97.48;100868.63;4981051;28;20101;-80
2022/04/13 01:48:58;;;;;;;18.52;4.10;;;;;;;13.31;98.48;100879.19;4963762;28;20540;-80
2022/04/13 01:51:24;;;;;;;15.38;4.15;;;;;;;13.31;98.05;100892.09;4992181;28;20078;-81
2022/04/13 01:53:50;;;;;;;9.23;3.42;;;;;;;13.32;98.37;100885.59;4993250;28;20106;-81
2022/04/13 01:56:16;;;;;;;10.63;4.40;;;;;;;13.35;97.89;100888.94;4993555;28;20390;-81
2022/04/13 01:58:41;;;;;;;10.65;3.22;;;;;;;13.34;98.20;100891.84;4993366;28;20087;-81
2022/04/13 02:01:07;;;;;;;12.90;3.35;;;;;;;13.42;97.54;100900.28;4969709;28;20054;-80
2022/04/13 02:03:33;;;;;;;10.98;3.88;;;;;;;13.37;98.15;100897.94;4979666;28;20026;-80
2022/04/13 02:05:58;;;;;;;8.25;3.15;;;;;;;13.39;97.59;100884.91;4987004;28;20037;-80
2022/04/13 02:08:24;;;;;;;10.30;3.60;;;;;;;13.45;98.73;100899.13;4991585;28;20382;-80
2022/04/13 02:10:50;;;;;;;12.45;3.80;;;;;;;13.39;98.26;100906.91;4985207;28;20031;-80
2022/04/13 02:13:16;;;;;;;13.30;4.00;;;;;;;13.38;98.44;100893.28;4995973;28;20151;-80
2022/04/13 02:15:42;;;;;;;12.23;3.90;;;;;;;13.37;98.23;100892.44;4956316;28;20043;-80
2022/04/13 02:18:07;;;;;;;13.52;4.38;;;;;;;13.41;99.02;100904.00;4996994;28;20096;-80
2022/04/13 02:20:33;;;;;;;12.88;3.40;;;;;;;13.41;98.22;100912.28;4991062;28;20422;-80
2022/04/13 02:23:01;;;;;;;15.98;4.22;;;;;;;13.36;99.16;100920.06;4959808;28;20045;-80
2022/04/13 02:25:27;;;;;;;11.20;4.15;;;;;;;13.36;98.68;100917.31;4994835;28;20026;-80
2022/04/13 02:27:53;;;;;;;11.40;3.72;;;;;;;13.32;99.61;100913.97;4958772;28;20453;-79
2022/04/13 02:30:18;;;;;;;17.63;4.88;;;;;;;13.33;99.97;100918.47;4976106;28;20057;-80
2022/04/13 02:32:44;;;;;;;12.43;3.97;;;;;;;13.34;99.80;100920.19;4976392;28;20402;-80
2022/04/13 02:35:10;;;;;;;15.10;4.32;;;;;;;13.36;100.00;100917.31;4959275;28;20039;-80
2022/04/13 02:37:36;;;;;;;15.23;4.32;;;;;;;13.38;100.00;100927.19;4995263;28;20097;-80
2022/04/13 02:40:01;;;;;;;14.18;4.20;;;;;;;13.30;100.00;100924.22;4974383;28;20463;-80
2022/04/13 02:42:33;;;;;;;16.73;4.55;;;;;;;13.28;100.00;100926.25;4992554;28;20034;-80
2022/04/13 02:45:03;;;;;;;12.93;4.85;;;;;;;13.29;100.00;100930.72;4972025;28;20050;-80
2022/04/13 02:47:29;;;;;;;13.07;3.70;;;;;;;13.21;100.00;100925.03;5003195;28;20030;-80
2022/04/13 02:49:55;;;;;;;11.95;4.07;;;;;;;13.21;100.00;100931.41;4990844;28;20061;-81
2022/04/13 02:52:21;;;;;;;9.57;3.88;;;;;;;13.20;100.00;100928.81;4992996;28;20076;-81
2022/04/13 02:54:46;;;;;;;9.55;3.88;;;;;;;13.18;100.00;100933.56;4993910;28;20061;-81
2022/04/13 02:57:12;;;;;;;9.88;3.95;;;;;;;13.22;100.00;100937.78;4988862;28;20031;-81
2022/04/13 02:59:37;;;;;;;16.40;4.53;;;;;;;13.20;100.00;100939.81;4963337;28;20041;-81
2022/04/13 03:02:04;;;;;;;12.88;4.28;;;;;;;13.17;100.00;100940.06;4968964;28;20041;-79
2022/04/13 03:04:32;;;;;;;16.67;3.90;;;;;;;13.06;100.00;100939.13;4996125;28;20128;-80
2022/04/13 03:06:58;;;;;;;14.15;4.00;;;;;;;13.06;100.00;100938.25;5000530;28;20045;-80
2022/04/13 03:09:24;;;;;;;17.35;4.57;;;;;;;13.01;100.00;100946.91;4983062;28;20046;-79
2022/04/13 03:11:50;;;;;;;21.08;4.60;;;;;;;12.94;100.00;100948.47;4991119;28;20034;-79
2022/04/13 03:14:15;;;;;;;12.98;4.13;;;;;;;13.00;100.00;100953.44;5002490;28;20475;-79
2022/04/13 03:16:40;;;;;;;10.48;3.95;;;;;;;13.00;100.00;100952.53;4975023;28;20030;-80
2022/04/13 03:19:06;;;;;;;11.02;3.92;;;;;;;12.91;100.00;100948.75;4970397;28;20039;-79
2022/04/13 03:21:32;;;;;;;12.35;4.13;;;;;;;12.88;100.00;100951.75;4980237;28;20137;-79
2022/04/13 03:23:57;;;;;;;10.77;4.28;;;;;;;12.90;100.00;100959.88;4975088;28;20442;-79
2022/04/13 03:26:23;;;;;;;10.95;4.20;;;;;;;12.69;100.00;100958.84;4977676;28;20069;-79
2022/04/13 03:28:49;;;;;;;20.52;5.35;;;;;;;12.60;100.00;100961.53;4991065;28;20101;-79
2022/04/13 03:31:14;;;;;;;15.43;4.57;;;;;;;12.50;100.00;100950.47;4992862;28;20031;-80
2022/04/13 03:33:40;;;;;;;15.70;4.63;;;;;;;12.44;100.00;100954.59;4979887;28;20052;-79
2022/04/13 03:36:05;;;;;;;15.77;4.38;;;;;;;12.55;100.00;100955.56;4975461;28;20035;-79
2022/04/13 03:38:31;;;;;;;11.30;4.30;;;;;;;12.50;100.00;100953.19;4985778;28;20085;-80
2022/04/13 03:40:56;;;;;;;10.63;4.93;;;;;;;12.36;100.00;100953.50;4969504;28;20085;-80
2022/04/13 03:43:21;;;;;;;17.40;4.57;;;;;;;12.31;100.00;100952.03;5004117;28;20031;-80
2022/04/13 03:45:47;;;;;;;19.70;4.63;;;;;;;12.16;100.00;100956.06;4989367;28;20054;-80
2022/04/13 03:48:12;;;;;;;13.68;4.68;;;;;;;12.26;100.00;100957.03;4988262;28;20046;-80
2022/04/13 03:50:38;;;;;;;11.60;4.35;;;;;;;12.30;100.00;100950.28;4968883;28;20031;-79
2022/04/13 03:53:03;;;;;;;10.15;3.90;;;;;;;12.16;100.00;100941.47;4990296;28;21594;-80
2022/04/13 03:55:29;;;;;;;16.90;4.68;;;;;;;12.13;100.00;100957.22;4959433;28;20094;-79
2022/04/13 03:57:54;;;;;;;15.63;5.03;;;;;;;12.07;100.00;100952.22;4956594;28;20482;-79
2022/04/13 04:00:20;;;;;;;13.20;4.47;;;;;;;11.98;100.00;100958.47;4974755;28;20037;-79
2022/04/13 04:02:45;;;;;;;11.85;4.25;;;;;;;11.90;100.00;100955.47;4975292;28;20038;-79
2022/04/13 04:05:12;;;;;;;18.52;4.90;;;;;;;11.40;100.00;100959.50;4990182;28;20047;-79
2022/04/13 04:07:38;;;;;;;14.77;5.75;;;;;;;11.35;100.00;100956.28;4979964;28;20093;-79
2022/04/13 04:10:04;;;;;;;13.80;4.60;;;;;;;11.34;100.00;100962.75;4987885;28;20042;-78
2022/04/13 04:12:36;;;;;;;14.52;5.18;;;;;;;11.19;100.00;100961.25;4961541;28;20042;-78
2022/04/13 04:15:02;;;;;;;15.15;4.75;;;;;;;11.15;100.00;100976.16;4985865;28;20026;-78
2022/04/13 04:17:27;;;;;;;11.27;4.45;;;;;;;11.13;100.00;100968.06;4982770;28;20038;-79
2022/04/13 04:19:53;;;;;;;13.90;5.70;;;;;;;11.09;100.00;100977.56;4974249;28;20031;-79
2022/04/13 04:22:18;;;;;;;16.10;4.85;;;;;;;11.02;100.00;100977.16;4986665;28;20042;-79
2022/04/13 04:24:43;;;;;;;14.52;5.05;;;;;;;11.09;100.00;100977.56;4955879;28;20038;-79
2022/04/13 04:27:09;;;;;;;14.43;4.65;;;;;;;11.17;100.00;100982.44;4997521;28;20038;-79
2022/04/13 04:29:35;;;;;;;8.35;4.43;;;;;;;11.03;100.00;100995.38;5012756;28;20021;-79
2022/04/13 04:32:02;;;;;;;18.92;5.03;;;;;;;10.97;100.00;100994.94;4982657;28;20023;-79
2022/04/13 04:34:27;;;;;;;29.50;4.93;;;;;;;10.95;100.00;100991.47;4968815;28;20090;-78
2022/04/13 04:36:53;;;;;;;11.38;4.70;;;;;;;10.93;100.00;101001.69;4992469;28;20062;-79
2022/04/13 04:39:19;;;;;;;12.35;5.07;;;;;;;10.92;100.00;101005.38;4989274;28;20030;-79
2022/04/13 04:41:44;;;;;;;18.33;5.10;;;;;;;10.92;100.00;101008.13;4971477;28;20042;-79
2022/04/13 04:44:10;;;;;;;11.50;5.20;;;;;;;10.93;100.00;101005.28;4984185;28;20031;-81
2022/04/13 04:46:37;;;;;;;15.68;5.57;;;;;;;10.96;100.00;101017.88;4976948;28;20061;-78
2022/04/13 04:49:04;;;;;;;16.35;5.35;;;;;;;11.03;100.00;101021.88;4971575;28;20034;-79
2022/04/13 04:51:31;;;;;;;15.20;5.80;;;;;;;11.07;100.00;101027.97;4983966;28;20118;-79
2022/04/13 04:53:57;;;;;;;10.77;5.50;;;;;;;10.88;100.00;101034.03;4995071;28;20034;-78
2022/04/13 04:56:23;;;;;;;12.20;5.25;;;;;;;10.73;100.00;101031.47;4976071;28;20027;-79
2022/04/13 04:58:48;;;;;;;19.35;5.97;;;;;;;10.83;100.00;101042.59;4977770;28;20053;-79
2022/04/13 05:01:14;;;;;;;20.33;6.70;;;;;;;10.69;100.00;101049.16;4982012;28;20510;-79
2022/04/13 05:03:41;;;;;;;17.88;6.53;;;;;;;10.69;100.00;101045.53;4997303;28;20078;-79
2022/04/13 05:06:06;;;;;;;21.35;5.80;;;;;;;10.74;100.00;101049.69;4964066;28;20045;-79
2022/04/13 05:08:32;;;;;;;17.05;6.60;;;;;;;10.83;100.00;101057.16;4955536;28;20035;-79
2022/04/13 05:10:57;;;;;;;22.63;5.90;;;;;;;10.85;100.00;101054.31;4950378;28;20030;-80
2022/04/13 05:13:23;;;;;;;15.93;5.75;;;;;;;10.77;100.00;101048.53;5004068;28;20075;-79
2022/04/13 05:15:48;;;;;;;19.23;7.68;;;;;;;10.82;100.00;101057.28;4979095;28;20057;-79
2022/04/13 05:18:13;;;;;;;10.90;6.07;;;;;;;10.82;100.00;101060.91;4975117;28;20098;-79
2022/04/13 05:20:40;;;;;;;31.27;7.25;;;;;;;10.76;100.00;101060.50;4990281;28;20039;-79
2022/04/13 05:23:06;;;;;;;14.55;6.90;;;;;;;10.82;100.00;101063.66;4974071;28;20031;-79
2022/04/13 05:25:32;;;;;;;12.38;6.65;;;;;;;10.70;100.00;101070.06;4984684;28;20044;-79
2022/04/13 05:27:57;;;;;;;12.00;6.60;;;;;;;10.77;100.00;101070.47;4984811;28;20093;-80
2022/04/13 05:30:22;;;;;;;16.60;6.78;;;;;;;10.72;100.00;101075.41;4998531;28;20041;-80
2022/04/13 05:32:58;;;;;;;19.63;7.00;;;;;;;10.72;100.00;101081.75;4964068;28;20062;-80
2022/04/13 05:35:27;;;;;;;14.15;6.22;;;;;;;10.74;100.00;101079.81;4978383;28;20038;-79
2022/04/13 05:37:53;;;;;;;20.73;6.78;;;;;;;10.89;100.00;101087.81;4971141;28;20105;-79
2022/04/13 05:40:19;;;;;;;16.58;7.00;;;;;;;10.91;100.00;101078.50;4985579;28;20077;-80
2022/04/13 05:42:45;;;;;;;19.48;6.93;;;;;;;10.98;100.00;101085.25;4984716;28;20069;-79
2022/04/13 05:45:11;;;;;;;17.05;6.78;;;;;;;10.97;100.00;101088.09;4994145;28;20335;-80
2022/04/13 05:47:38;;;;;;;16.20;6.47;;;;;;;10.97;100.00;101086.25;4978865;28;20035;-80
2022/04/13 05:50:04;;;;;;;12.82;6.07;;;;;;;11.03;100.00;101087.63;4958186;28;20056;-80
2022/04/13 05:52:30;;;;;;;16.23;5.82;;;;;;;11.03;100.00;101095.84;4978895;28;20035;-80
2022/04/13 05:54:56;;;;;;;16.23;6.43;;;;;;;10.97;100.00;101102.69;4989714;28;20034;-80
2022/04/13 05:57:21;;;;;;;14.93;6.13;;;;;;;11.12;100.00;101094.28;4987697;28;20502;-80
2022/04/13 05:59:47;;;;;;;18.20;6.32;;;;;;;11.36;100.00;101100.59;4972525;28;20042;-79
2022/04/13 06:02:12;;;;;;;18.10;6.20;;;;;;;11.72;100.00;101092.28;4965820;28;20038;-80
2022/04/13 06:04:38;;;;;;;12.82;6.75;;;;;;;11.91;100.00;101105.41;4996139;28;20026;-80
2022/04/13 06:07:03;;;;;;;22.80;8.70;;;;;;;12.19;100.00;101101.31;4976145;28;20051;-80
2022/04/13 06:09:29;;;;;;;19.23;7.47;;;;;;;12.36;100.00;101107.28;4994392;28;20030;-78
2022/04/13 06:11:54;;;;;;;22.98;8.18;;;;;;;12.47;100.00;101102.63;4990126;28;20030;-78
2022/04/13 06:14:21;;;;;;;15.18;7.20;;;;;;;12.75;100.00;101113.19;4988378;28;20078;-78
2022/04/13 06:16:46;;;;;;;18.33;8.20;;;;;;;12.76;100.00;101117.69;4984448;28;20058;-78
2022/04/13 06:19:12;;;;;;;19.45;8.43;;;;;;;12.98;100.00;101116.72;4969586;28;20038;-79
2022/04/13 06:21:37;;;;;;;20.20;8.60;;;;;;;13.12;100.00;101123.78;4950637;28;20050;-79
2022/04/13 06:24:03;;;;;;;24.65;10.23;;;;;;;13.31;100.00;101131.34;5005128;28;20034;-78
2022/04/13 06:26:29;;;;;;;21.27;8.60;;;;;;;13.37;100.00;101133.59;4979215;28;20062;-79
2022/04/13 06:28:54;;;;;;;19.55;8.48;;;;;;;13.37;100.00;101125.34;4987506;28;20049;-79
2022/04/13 06:31:20;;;;;;;21.45;9.10;;;;;;;13.65;100.00;101132.03;4983750;28;20057;-79
2022/04/13 06:33:45;;;;;;;18.40;8.70;;;;;;;13.69;100.00;101133.53;4983575;28;20039;-79
2022/04/13 06:36:11;;;;;;;28.55;9.38;;;;;;;13.95;100.00;101130.34;5002204;28;20038;-79
2022/04/13 06:38:40;;;;;;;21.65;10.05;;;;;;;14.31;100.00;101128.03;4987798;28;20486;-78
2022/04/13 06:41:07;;;;;;;30.10;9.60;;;;;;;14.89;100.00;101136.50;5003385;28;20030;-78
2022/04/13 06:43:33;;;;;;;20.02;9.65;;;;;;;14.60;100.00;101136.44;4985270;28;20038;-78
2022/04/13 06:45:58;;;;;;;20.67;9.82;;;;;;;14.79;100.00;101129.22;4993643;28;20049;-79
2022/04/13 06:48:24;;;;;;;23.98;9.70;;;;;;;14.89;100.00;101130.13;4985328;28;20565;-79
2022/04/13 06:50:53;;;;;;;19.92;9.43;;;;;;;14.86;100.00;101142.28;4978962;28;20038;-79
2022/04/13 06:53:19;;;;;;;21.00;10.00;;;;;;;15.00;100.00;101140.13;4971072;28;20049;-80
2022/04/13 06:55:47;;;;;;;34.38;10.85;;;;;;;15.07;100.00;101141.31;4973208;28;20390;-80
2022/04/13 06:58:16;;;;;;;16.00;9.60;;;;;;;14.53;100.00;101160.03;4972098;28;21642;-78
2022/04/13 07:00:43;;;;;;;21.20;10.27;;;;;;;14.34;100.00;101156.16;5001326;28;20030;-79
2022/04/13 07:03:09;;;;;;;19.55;9.98;;;;;;;14.54;100.00;101161.75;4975742;28;20509;-79
2022/04/13 07:05:35;;;;;;;23.55;10.98;;;;;;;14.43;100.00;101167.38;4993822;28;20039;-80
2022/04/13 07:08:02;;;;;;;16.85;10.18;;;;;;;14.49;100.00;101170.47;4972813;28;20026;-79
2022/04/13 07:10:30;;;;;;;26.60;10.77;;;;;;;14.65;100.00;101171.84;4984057;28;20514;-79
2022/04/13 07:12:57;;;;;;;21.02;11.20;;;;;;;15.01;100.00;101177.72;4994318;28;20028;-79
2022/04/13 07:15:23;;;;;;;26.23;11.25;;;;;;;15.30;100.00;101174.13;4994339;28;20030;-79
2022/04/13 07:17:49;;;;;;;32.53;11.10;;;;;;;15.80;100.00;101188.66;4973385;28;20042;-80
2022/04/13 07:20:14;;;;;;;25.75;11.38;;;;;;;15.69;100.00;101188.81;4988988;28;20037;-79
2022/04/13 07:22:47;;;;;;;19.50;10.85;;;;;;;15.67;100.00;101201.84;4990430;28;20045;-79
2022/04/13 07:25:13;;;;;;;31.65;10.38;;;;;;;15.51;100.00;101191.44;4988723;28;20049;-79
2022/04/13 07:27:38;;;;;;;21.55;11.05;;;;;;;15.59;100.00;101198.97;4957335;28;20486;-79
2022/04/13 07:30:07;;;;;;;28.45;12.27;;;;;;;16.03;100.00;101199.38;4973793;28;20149;-79
2022/04/13 07:32:32;;;;;;;21.35;10.80;;;;;;;16.18;100.00;101205.28;4972595;28;20039;-79
2022/04/13 07:35:02;;;;;;;25.98;10.63;;;;;;;16.45;100.00;101204.50;4979090;28;20119;-78
2022/04/13 07:37:29;;;;;;;24.65;10.90;;;;;;;16.87;100.00;101203.16;4990580;28;20038;-78
2022/04/13 07:39:55;;;;;;;20.27;10.98;;;;;;;17.03;100.00;101211.66;4972309;28;20056;-78
2022/04/13 07:42:25;;;;;;;21.60;10.95;;;;;;;17.11;100.00;101227.47;4973469;28;20088;-78
2022/04/13 07:44:54;;;;;;;29.02;10.48;;;;;;;17.31;99.78;101213.50;4974357;28;20121;-84
2022/04/13 07:47:21;;;;;;;25.63;10.15;;;;;;;17.18;99.99;101211.97;4971497;28;20047;-82
2022/04/13 07:49:47;;;;;;;16.60;8.73;;;;;;;17.27;99.88;101212.97;4963206;28;20114;-83
2022/04/13 07:52:14;;;;;;;20.42;7.90;;;;;;;16.66;100.00;101211.66;4960762;28;20031;-83
2022/04/13 07:54:40;;;;;;;14.55;7.63;;;;;;;16.56;100.00;101208.09;4972504;28;20042;-82
2022/04/13 07:57:05;;;;;;;14.88;7.47;;;;;;;16.92;100.00;101211.00;4979960;28;20043;-81
2022/04/13 07:59:31;;;;;;;15.50;7.63;;;;;;;16.89;100.00;101213.06;4977003;28;20043;-81
2022/04/13 08:01:57;;;;;;;19.48;7.90;;;;;;;16.69;100.00;101212.25;4973179;28;20071;-83
2022/04/13 08:04:22;;;;;;;17.83;7.88;;;;;;;16.93;100.00;101219.13;4962905;28;20042;-82
2022/04/13 08:06:48;;;;;;;16.33;8.07;;;;;;;17.28;100.00;101217.44;4961279;28;20042;-83
2022/04/13 08:09:14;;;;;;;18.30;8.10;;;;;;;17.32;100.00;101218.03;4976354;28;20045;-81
2022/04/13 08:11:40;;;;;;;15.30;7.35;;;;;;;18.01;96.92;101230.28;4961693;28;20089;-83
2022/04/13 08:14:05;;;;;;;18.77;7.50;;;;;;;17.66;97.67;101234.81;4958431;29;20428;-83
2022/04/13 08:16:31;;;;;;;16.17;7.28;;;;;;;17.68;97.56;101241.06;4976164;28;20039;-83
2022/04/13 08:18:57;;;;;;;14.95;6.85;;;;;;;17.91;97.96;101237.84;4957720;29;20514;-83
2022/04/13 08:21:22;;;;;;;12.90;6.75;;;;;;;18.26;94.75;101250.72;4956788;28;20030;-83
2022/04/13 08:23:47;;;;;;;13.07;6.30;;;;;;;18.25;95.65;101248.13;4975591;28;20035;-82
2022/04/13 08:26:13;;;;;;;19.30;7.03;;;;;;;18.21;94.74;101246.72;4962337;29;20027;-84
2022/04/13 08:28:38;;;;;;;20.55;6.82;;;;;;;17.79;96.34;101240.81;4945708;29;20126;-83
2022/04/13 08:31:04;;;;;;;18.33;7.28;;;;;;;17.94;95.86;101238.38;4956601;29;20066;-83
2022/04/13 08:33:33;;;;;;;16.92;7.13;;;;;;;17.93;95.67;101238.53;4949845;29;20031;-83
2022/04/13 08:35:59;;;;;;;17.25;7.45;;;;;;;18.40;93.68;101249.28;4962587;28;20078;-83
2022/04/13 08:38:24;;;;;;;17.83;8.30;;;;;;;18.66;91.44;101252.03;4961436;29;20396;-83
2022/04/13 08:41:00;;;;;;;21.38;7.82;;;;;;;18.40;92.31;101251.16;4964313;28;20081;-83
2022/04/13 08:43:33;;;;;;;21.25;8.00;;;;;;;17.96;94.85;101252.06;4968835;28;20055;-84
2022/04/13 08:46:00;;;;;;;21.65;7.55;;;;;;;17.99;95.86;101247.06;4962702;29;20075;-82
2022/04/13 08:48:26;;;;;;;18.58;8.75;;;;;;;18.05;95.42;101250.22;4978726;28;20035;-84
2022/04/13 08:50:58;;;;;;;19.23;8.80;;;;;;;18.19;95.13;101257.97;4973837;28;20479;-83
2022/04/13 08:53:30;;;;;;;15.60;8.27;;;;;;;17.78;96.65;101258.47;4957116;28;20043;-82
2022/04/13 08:55:58;;;;;;;19.63;8.45;;;;;;;17.96;96.49;101260.38;4988981;28;20042;-82
2022/04/13 08:58:30;;;;;;;14.85;8.50;;;;;;;18.10;95.50;101251.50;4980585;28;20477;-83
2022/04/13 09:00:57;;;;;;;;;;;;;;;18.01;96.96;101260.78;4959716;29;20029;-81
2022/04/13 09:03:38;;;;;;;14.15;9.10;;;;;;;17.66;97.34;101259.75;4967342;28;19915;-80
2022/04/13 09:06:05;;;;;;;20.92;9.43;;;;;;;17.44;98.94;101263.81;4962832;28;20086;-80
2022/04/13 09:08:54;;;;;;;19.38;8.95;;;;;;;17.73;96.44;101263.59;4967095;28;20413;-80
2022/04/13 09:11:21;;;;;;;19.88;9.43;;;;;;;17.86;96.54;101271.53;4965922;28;20430;-81
2022/04/13 09:13:47;;;;;;;20.05;8.80;;;;;;;17.56;98.85;101278.31;4979036;28;20034;-79
2022/04/13 09:16:14;;;;;;;18.35;9.32;;;;;;;17.58;97.50;101277.13;4982647;28;20038;-79
2022/04/13 09:18:40;;;;;;;23.00;9.73;;;;;;;17.50;99.48;101274.28;4980650;28;20500;-80
2022/04/13 09:21:05;;;;;;;18.10;9.55;;;;;;;17.54;98.47;101275.69;4982293;28;20385;-80
2022/04/13 09:23:31;;;;;;;24.25;10.13;;;;;;;17.52;99.40;101282.44;4968638;28;20058;-80
2022/04/13 09:25:58;;;;;;;23.58;10.00;;;;;;;17.31;100.00;101289.09;4968120;28;20034;-79
2022/04/13 09:28:25;;;;;;;26.30;9.95;;;;;;;17.13;100.00;101291.84;4980148;28;20042;-79
2022/04/13 09:30:52;;;;;;;25.85;11.35;;;;;;;16.98;100.00;101294.22;4970708;28;20051;-79
2022/04/13 09:33:18;;;;;;;29.52;11.32;;;;;;;17.06;100.00;101302.66;4949604;29;20031;-79
2022/04/13 09:35:44;;;;;;;24.35;10.80;;;;;;;17.13;100.00;101299.28;4944100;29;20054;-79
2022/04/13 09:38:09;;;;;;;23.67;10.68;;;;;;;17.10;100.00;101300.44;4973918;28;20039;-78
2022/04/13 09:40:37;;;;;;;22.15;10.90;;;;;;;17.24;100.00;101301.84;4963680;29;20050;-79
2022/04/13 09:43:14;;;;;;;29.15;11.13;;;;;;;17.27;100.00;101294.09;4962991;28;20080;-80
2022/04/13 09:45:45;;;;;;;22.77;11.65;;;;;;;17.39;100.00;101300.28;4980640;28;20054;-82
2022/04/13 09:48:16;;;;;;;24.77;12.27;;;;;;;17.18;100.00;101303.31;4973977;28;20050;-81
2022/04/13 09:50:44;;;;;;;26.38;12.50;;;;;;;17.03;100.00;101304.84;4973599;28;20035;-80
2022/04/13 09:53:12;;;;;;;27.77;11.98;;;;;;;17.17;100.00;101304.34;4946657;29;20085;-79
2022/04/13 09:55:52;;;;;;;24.58;12.88;;;;;;;17.25;100.00;101311.88;4966714;28;20029;-78
2022/04/13 09:58:19;;;;;;;26.20;13.25;;;;;;;17.16;100.00;101316.44;4960799;28;20038;-81
2022/04/13 10:00:49;;;;;;;22.95;12.02;;;;;;;17.03;100.00;101321.44;4960007;29;20034;-80
2022/04/13 10:03:20;;;;;;;28.55;12.55;;;;;;;17.27;100.00;101320.91;4951615;28;20130;-79
2022/04/13 10:05:49;;;;;;;28.42;13.40;;;;;;;17.17;100.00;101320.94;4964816;28;20098;-82
2022/04/13 10:08:18;;;;;;;25.65;12.10;;;;;;;17.08;100.00;101319.97;4963149;28;20035;-83
2022/04/13 10:10:46;;;;;;;28.42;13.82;;;;;;;17.14;100.00;101326.78;4948420;29;20108;-82
2022/04/13 10:13:29;;;;;;;23.90;12.30;;;;;;;16.96;100.00;101323.94;4964114;29;20031;-81
2022/04/13 10:15:57;;;;;;;;;;;;;;;17.20;100.00;101330.81;4965733;28;20027;-82
2022/04/13 10:18:23;;;;;;;21.73;10.57;;;;;;;17.11;100.00;101329.00;4966372;28;19945;-82
2022/04/13 10:20:49;;;;;;;23.50;9.77;;;;;;;17.32;100.00;101328.75;4960808;28;20049;-82
2022/04/13 10:23:15;;;;;;;23.85;11.43;;;;;;;17.18;100.00;101327.34;4952151;29;20031;-82
2022/04/13 10:25:42;;;;;;;20.10;10.75;;;;;;;17.11;100.00;101323.47;4964430;28;20427;-82
2022/04/13 10:28:10;;;;;;;17.55;10.90;;;;;;;17.16;100.00;101335.81;4964969;28;20023;-83
2022/04/13 10:30:39;;;;;;;23.85;12.20;;;;;;;17.01;100.00;101327.13;4965455;28;20030;-81
2022/04/13 10:33:10;;;;;;;26.35;12.07;;;;;;;17.15;100.00;101333.19;4964590;28;20030;-82
2022/04/13 10:35:43;;;;;;;30.38;12.27;;;;;;;17.42;100.00;101330.41;4979589;28;20038;-82
2022/04/13 10:38:09;;;;;;;29.33;13.90;;;;;;;17.62;100.00;101330.31;4978256;28;20141;-84
2022/04/13 10:40:42;;;;;;;28.13;13.30;;;;;;;17.87;100.00;101325.91;4954868;28;20065;-84
2022/04/13 10:43:13;;;;;;;24.38;13.05;;;;;;;17.86;99.75;101326.94;4969170;28;20451;-80
2022/04/13 10:45:40;;;;;;;22.77;13.93;;;;;;;17.62;100.00;101336.69;4958497;28;20047;-80
2022/04/13 10:48:10;;;;;;;29.50;12.35;;;;;;;17.52;100.00;101340.56;4958059;28;20395;-80
2022/04/13 10:51:02;;;;;;;27.30;13.70;;;;;;;17.60;100.00;101326.81;4968750;28;20047;-82
2022/04/13 10:53:50;;;;;;;24.83;12.45;;;;;;;17.64;100.00;101331.00;4966545;28;20033;-81
2022/04/13 10:56:20;;;;;;;31.63;13.43;;;;;;;17.58;100.00;101339.97;4967619;28;20046;-81
2022/04/13 10:58:55;;;;;;;24.45;12.73;;;;;;;17.42;100.00;101348.94;4969599;28;20040;-81
2022/04/13 11:01:21;;;;;;;24.55;12.95;;;;;;;17.36;100.00;101350.41;4970709;28;20034;-81
2022/04/13 11:03:48;;;;;;;25.45;12.82;;;;;;;17.55;100.00;101343.03;4974079;28;20030;-82
2022/04/13 11:06:13;;;;;;;24.40;13.88;;;;;;;17.44;100.00;101353.28;4970160;28;20099;-84
2022/04/13 11:08:44;;;;;;;31.10;14.40;;;;;;;17.54;100.00;101353.22;4952280;28;20027;-81
2022/04/13 11:11:17;;;;;;;28.65;15.52;;;;;;;17.48;100.00;101356.63;4961275;28;20035;-83